createdAt,value
2023-02-06T00:01:36.106Z,102889.22
2023-02-06T00:04:04.483Z,102893.53
2023-02-06T00:06:32.265Z,102896.00
2023-02-06T00:09:00.307Z,102901.06
2023-02-06T00:11:27.939Z,102906.28
2023-02-06T00:13:56.846Z,102907.19
2023-02-06T00:16:30.574Z,102908.03
2023-02-06T00:18:59.354Z,102906.28
2023-02-06T00:21:28.346Z,102904.84
2023-02-06T00:23:58.874Z,102900.69
2023-02-06T00:26:27.575Z,102908.44
2023-02-06T00:28:55.532Z,102898.00
2023-02-06T00:31:25.042Z,102903.16
2023-02-06T00:33:53.063Z,102905.56
2023-02-06T00:36:20.912Z,102910.00
2023-02-06T00:38:49.091Z,102901.44
2023-02-06T00:41:16.684Z,102902.91
2023-02-06T00:43:44.539Z,102911.59
2023-02-06T00:46:13.161Z,102915.94
2023-02-06T00:49:06.512Z,102909.75
2023-02-06T00:51:36.455Z,102908.03
2023-02-06T00:54:04.687Z,102916.59
2023-02-06T00:56:32.372Z,102910.63
2023-02-06T00:59:00.892Z,102908.75
2023-02-06T01:01:29.190Z,102910.50
2023-02-06T01:03:56.848Z,102923.56
2023-02-06T01:06:24.904Z,102912.25
2023-02-06T01:08:52.928Z,102922.66
2023-02-06T01:11:23.308Z,102923.56
2023-02-06T01:13:51.618Z,102925.34
2023-02-06T01:16:23.021Z,102929.81
2023-02-06T01:18:51.051Z,102918.31
2023-02-06T01:21:22.789Z,102922.53
2023-02-06T01:23:53.329Z,102916.44
2023-02-06T01:26:24.177Z,102914.81
2023-02-06T01:28:51.967Z,102914.00
2023-02-06T01:31:28.235Z,102913.94
2023-02-06T01:33:58.442Z,102911.31
2023-02-06T01:36:26.542Z,102899.28
2023-02-06T01:38:54.738Z,102895.88
2023-02-06T01:41:25.592Z,102906.25
2023-02-06T01:44:10.889Z,102898.53
2023-02-06T01:46:41.208Z,102896.97
2023-02-06T01:49:12.256Z,102904.44
2023-02-06T01:51:41.142Z,102905.38
2023-02-06T01:54:09.809Z,102911.47
2023-02-06T01:56:44.123Z,102909.03
2023-02-06T01:59:13.071Z,102915.97
2023-02-06T02:01:42.129Z,102908.91
2023-02-06T02:04:15.212Z,102911.38
2023-02-06T02:06:43.013Z,102913.09
2023-02-06T02:09:10.682Z,102911.47
2023-02-06T02:11:42.153Z,102904.50
2023-02-06T02:14:13.566Z,102906.38
2023-02-06T02:17:07.955Z,102907.13
2023-02-06T02:19:41.967Z,102910.59
2023-02-06T02:22:44.482Z,102901.97
2023-02-06T02:25:37.896Z,102905.44
2023-02-06T02:28:43.971Z,102903.88
2023-02-06T02:31:36.344Z,102910.03
2023-02-06T02:34:14.600Z,102908.19
2023-02-06T02:36:46.465Z,102909.03
2023-02-06T02:39:30.251Z,102909.91
2023-02-06T02:42:20.730Z,102922.88
2023-02-06T02:44:55.589Z,102932.34
2023-02-06T02:47:34.104Z,102923.69
2023-02-06T02:50:03.854Z,102927.22
2023-02-06T02:52:31.820Z,102937.69
2023-02-06T02:55:00.678Z,102936.72
2023-02-06T02:57:31.944Z,102937.63
2023-02-06T03:00:01.468Z,102936.84
2023-02-06T03:02:36.195Z,102935.91
2023-02-06T03:05:08.736Z,102938.38
2023-02-06T03:08:13.915Z,102931.59
2023-02-06T03:10:44.991Z,102934.09
2023-02-06T03:13:39.498Z,102918.41
2023-02-06T03:16:07.728Z,102919.34
2023-02-06T03:19:05.167Z,102916.84
2023-02-06T03:21:35.838Z,102916.09
2023-02-06T03:24:10.143Z,102911.84
2023-02-06T03:26:39.847Z,102907.63
2023-02-06T03:29:12.805Z,102906.88
2023-02-06T03:31:46.234Z,102912.25
2023-02-06T03:34:40.577Z,102917.59
2023-02-06T03:37:08.921Z,102925.63
2023-02-06T03:39:36.752Z,102929.03
2023-02-06T03:42:06.234Z,102930.81
2023-02-06T03:44:39.501Z,102934.38
2023-02-06T03:47:10.758Z,102939.75
2023-02-06T03:49:41.693Z,102936.31
2023-02-06T03:52:15.398Z,102943.19
2023-02-06T03:54:49.883Z,102935.41
2023-02-06T03:57:19.454Z,102933.66
2023-02-06T03:59:48.129Z,102939.72
2023-02-06T04:02:17.895Z,102944.94
2023-02-06T04:04:46.248Z,102944.91
2023-02-06T04:07:27.850Z,102950.94
2023-02-06T04:09:56.720Z,102947.50
2023-02-06T04:12:25.349Z,102954.38
2023-02-06T04:14:53.293Z,102959.56
2023-02-06T04:17:38.539Z,102972.59
2023-02-06T04:20:09.177Z,102968.28
2023-02-06T04:22:37.543Z,102969.91
2023-02-06T04:25:06.881Z,102966.44
2023-02-06T04:27:34.400Z,102970.78
2023-02-06T04:30:02.083Z,102969.19
2023-02-06T04:32:29.658Z,102983.16
2023-02-06T04:34:57.629Z,102974.41
2023-02-06T04:37:25.284Z,102972.81
2023-02-06T04:39:52.821Z,102969.38
2023-02-06T04:42:20.793Z,102966.81
2023-02-06T04:44:48.294Z,102964.28
2023-02-06T04:47:16.026Z,102957.34
2023-02-06T04:49:43.628Z,102969.56
2023-02-06T04:52:12.115Z,102966.09
2023-02-06T04:54:40.069Z,102958.34
2023-02-06T04:57:08.050Z,102960.81
2023-02-06T04:59:35.515Z,102962.66
2023-02-06T05:02:03.070Z,102962.66
2023-02-06T05:04:30.682Z,102966.13
2023-02-06T05:06:58.237Z,102969.59
2023-02-06T05:09:25.885Z,102967.00
2023-02-06T05:11:53.875Z,102964.34
2023-02-06T05:14:23.249Z,102965.22
2023-02-06T05:16:51.670Z,102970.28
2023-02-06T05:19:19.182Z,102971.97
2023-02-06T05:21:46.943Z,102966.69
2023-02-06T05:24:15.062Z,102965.72
2023-02-06T05:26:42.690Z,102972.69
2023-02-06T05:29:11.058Z,102968.41
2023-02-06T05:31:39.137Z,102965.03
2023-02-06T05:34:06.839Z,102970.31
2023-02-06T05:36:34.792Z,102965.91
2023-02-06T05:39:02.296Z,102978.00
2023-02-06T05:41:30.265Z,102982.41
2023-02-06T05:43:57.835Z,102983.28
2023-02-06T05:46:25.557Z,102989.34
2023-02-06T05:48:53.200Z,102985.06
2023-02-06T05:51:20.792Z,102986.81
2023-02-06T05:53:48.396Z,102991.06
2023-02-06T05:56:15.950Z,102996.34
2023-02-06T05:58:43.495Z,102995.44
2023-02-06T06:01:13.460Z,103006.69
2023-02-06T06:03:47.117Z,103004.03
2023-02-06T06:06:28.082Z,103003.94
2023-02-06T06:08:58.267Z,103003.06
2023-02-06T06:11:29.135Z,103013.41
2023-02-06T06:13:56.731Z,103015.16
2023-02-06T06:16:24.534Z,103019.44
2023-02-06T06:18:52.251Z,103018.69
2023-02-06T06:21:20.347Z,103021.16
2023-02-06T06:23:48.001Z,103020.28
2023-02-06T06:26:16.233Z,103025.44
2023-02-06T06:28:44.183Z,103014.94
2023-02-06T06:31:13.047Z,103021.97
2023-02-06T06:33:41.524Z,103016.66
2023-02-06T06:36:11.424Z,103023.63
2023-02-06T06:38:40.444Z,103028.56
2023-02-06T06:41:08.088Z,103034.72
2023-02-06T06:43:36.230Z,103038.34
2023-02-06T06:46:05.362Z,103029.75
2023-02-06T06:48:34.370Z,103035.81
2023-02-06T06:51:02.103Z,103034.94
2023-02-06T06:53:30.692Z,103039.28
2023-02-06T06:56:05.742Z,103041.91
2023-02-06T06:58:33.745Z,103037.56
2023-02-06T07:01:01.508Z,103035.66
2023-02-06T07:03:29.093Z,103035.59
2023-02-06T07:05:57.384Z,103032.16
2023-02-06T07:08:25.078Z,103034.66
2023-02-06T07:10:53.176Z,103038.13
2023-02-06T07:13:20.876Z,103050.56
2023-02-06T07:15:48.844Z,103041.91
2023-02-06T07:18:16.962Z,103039.31
2023-02-06T07:20:44.751Z,103032.44
2023-02-06T07:23:12.614Z,103037.50
2023-02-06T07:25:40.137Z,103031.47
2023-02-06T07:28:08.476Z,103034.03
2023-02-06T07:30:36.424Z,103034.00
2023-02-06T07:33:05.714Z,103036.47
2023-02-06T07:35:34.396Z,103022.63
2023-02-06T07:38:02.744Z,103040.81
2023-02-06T07:40:44.078Z,103038.94
2023-02-06T07:43:14.085Z,103049.25
2023-02-06T07:45:42.087Z,103048.34
2023-02-06T07:48:10.480Z,103050.03
2023-02-06T07:50:38.662Z,103049.31
2023-02-06T07:53:07.927Z,103044.13
2023-02-06T07:55:38.474Z,103048.38
2023-02-06T07:58:06.555Z,103042.28
2023-02-06T08:00:34.390Z,103043.94
2023-02-06T08:03:01.952Z,103052.72
2023-02-06T08:05:29.490Z,103047.44
2023-02-06T08:07:57.641Z,103039.59
2023-02-06T08:10:26.019Z,103031.72
2023-02-06T08:12:53.610Z,103037.88
2023-02-06T08:15:21.186Z,103034.28
2023-02-06T08:17:48.801Z,103034.22
2023-02-06T08:20:16.398Z,103028.22
2023-02-06T08:22:44.057Z,103045.41
2023-02-06T08:25:11.648Z,103043.63
2023-02-06T08:27:39.681Z,103045.38
2023-02-06T08:30:08.414Z,103049.81
2023-02-06T08:32:36.427Z,103043.16
2023-02-06T08:35:04.246Z,103050.91
2023-02-06T08:37:32.757Z,103044.72
2023-02-06T08:40:00.780Z,103044.47
2023-02-06T08:42:28.418Z,103043.72
2023-02-06T08:44:56.105Z,103043.84
2023-02-06T08:47:23.697Z,103026.13
2023-02-06T08:49:51.872Z,103034.22
2023-02-06T08:52:19.642Z,103031.59
2023-02-06T08:54:47.588Z,103022.28
2023-02-06T08:57:15.112Z,103031.63
2023-02-06T08:59:43.117Z,103028.81
2023-02-06T09:02:11.877Z,103023.78
2023-02-06T09:04:39.487Z,103032.41
2023-02-06T09:07:07.948Z,103026.47
2023-02-06T09:09:35.634Z,103034.94
2023-02-06T09:12:05.289Z,103035.94
2023-02-06T09:14:33.155Z,103037.81
2023-02-06T09:17:01.776Z,103038.63
2023-02-06T09:19:29.492Z,103025.06
2023-02-06T09:21:57.455Z,103021.31
2023-02-06T09:24:25.765Z,103023.84
2023-02-06T09:26:59.943Z,103019.22
2023-02-06T09:29:31.799Z,103025.13
2023-02-06T09:32:00.128Z,103025.44
2023-02-06T09:34:29.065Z,103029.34
2023-02-06T09:36:58.054Z,103028.69
2023-02-06T09:39:26.222Z,103021.28
2023-02-06T09:41:59.997Z,103019.16
2023-02-06T09:44:27.465Z,103007.56
2023-02-06T09:47:02.506Z,103011.75
2023-02-06T09:49:53.158Z,102999.56
2023-02-06T09:52:52.358Z,103000.88
2023-02-06T09:55:32.809Z,102996.84
2023-02-06T09:58:27.418Z,102999.75
2023-02-06T10:01:01.819Z,102999.31
2023-02-06T10:03:41.550Z,103001.16
2023-02-06T10:06:27.604Z,102996.88
2023-02-06T10:09:04.666Z,102992.91
2023-02-06T10:11:45.264Z,102998.38
2023-02-06T10:14:43.705Z,102994.81
2023-02-06T10:17:27.015Z,102975.44
2023-02-06T10:19:54.661Z,102983.94
2023-02-06T10:22:38.890Z,102985.78
2023-02-06T10:25:25.071Z,102981.91
2023-02-06T10:27:57.801Z,102981.59
2023-02-06T10:30:55.530Z,102976.63
2023-02-06T10:33:53.417Z,102973.28
2023-02-06T10:36:37.267Z,102982.09
2023-02-06T10:39:23.610Z,102981.75
2023-02-06T10:42:00.456Z,102968.56
2023-02-06T10:44:53.871Z,102977.34
2023-02-06T10:47:41.716Z,102968.84
2023-02-06T10:50:12.954Z,102967.44
2023-02-06T10:52:41.358Z,102974.22
2023-02-06T10:55:22.750Z,102966.03
2023-02-06T10:58:11.817Z,102957.00
2023-02-06T11:00:40.591Z,102947.47
2023-02-06T11:03:15.904Z,102957.91
2023-02-06T11:05:43.519Z,102951.22
2023-02-06T11:08:21.127Z,102951.03
2023-02-06T11:10:49.556Z,102946.69
2023-02-06T11:13:30.549Z,102951.06
2023-02-06T11:16:06.307Z,102949.63
2023-02-06T11:18:37.110Z,102962.94
2023-02-06T11:21:07.558Z,102945.38
2023-02-06T11:23:36.033Z,102945.06
2023-02-06T11:26:16.422Z,102945.72
2023-02-06T11:29:08.866Z,102950.22
2023-02-06T11:31:47.330Z,102951.75
2023-02-06T11:34:24.380Z,102942.41
2023-02-06T11:36:56.160Z,102943.75
2023-02-06T11:39:23.879Z,102942.16
2023-02-06T11:42:05.508Z,102941.84
2023-02-06T11:44:41.926Z,102934.78
2023-02-06T11:47:33.943Z,102919.31
2023-02-06T11:50:14.237Z,102918.16
2023-02-06T11:52:46.756Z,102920.63
2023-02-06T11:55:30.259Z,102909.59
2023-02-06T11:58:22.341Z,102910.72
2023-02-06T12:00:52.980Z,102902.72
2023-02-06T12:03:44.698Z,102904.91
2023-02-06T12:06:16.991Z,102896.38
2023-02-06T12:08:51.474Z,102881.00
2023-02-06T12:11:39.838Z,102884.81
2023-02-06T12:14:19.255Z,102883.41
2023-02-06T12:16:47.571Z,102884.25
2023-02-06T12:19:31.718Z,102874.72
2023-02-06T12:22:16.775Z,102874.06
2023-02-06T12:24:49.234Z,102865.84
2023-02-06T12:27:26.996Z,102863.22
2023-02-06T12:30:07.788Z,102855.31
2023-02-06T12:32:42.074Z,102843.56
2023-02-06T12:35:33.967Z,102846.56
2023-02-06T12:38:11.149Z,102832.16
2023-02-06T12:40:57.468Z,102822.84
2023-02-06T12:43:25.087Z,102819.03
2023-02-06T12:45:59.913Z,102807.16
2023-02-06T12:48:51.609Z,102809.09
2023-02-06T12:51:27.962Z,102805.59
2023-02-06T12:54:15.798Z,102804.59
2023-02-06T12:56:55.644Z,102798.69
2023-02-06T12:59:57.159Z,102788.97
2023-02-06T13:02:50.825Z,102786.22
2023-02-06T13:05:40.585Z,102789.41
2023-02-06T13:08:15.365Z,102781.09
2023-02-06T13:10:44.328Z,102785.22
2023-02-06T13:13:31.484Z,102781.88
2023-02-06T13:16:02.461Z,102781.00
2023-02-06T13:18:44.689Z,102766.91
2023-02-06T13:21:25.083Z,102779.53
2023-02-06T13:24:01.754Z,102774.41
2023-02-06T13:26:48.920Z,102763.84
2023-02-06T13:29:28.678Z,102752.06
2023-02-06T13:32:46.802Z,102768.25
2023-02-06T13:35:21.022Z,102768.34
2023-02-06T13:37:51.500Z,102770.69
2023-02-06T13:40:26.675Z,102760.22
2023-02-06T13:43:15.965Z,102766.81
2023-02-06T13:45:53.784Z,102768.16
2023-02-06T13:48:46.544Z,102771.19
2023-02-06T13:51:51.017Z,102780.78
2023-02-06T13:54:56.940Z,102773.78
2023-02-06T13:57:55.594Z,102764.00
2023-02-06T14:00:31.566Z,102762.94
2023-02-06T14:03:13.413Z,102765.63
2023-02-06T14:05:51.631Z,102757.56
2023-02-06T14:08:54.113Z,102760.03
2023-02-06T14:12:11.724Z,102752.41
2023-02-06T14:15:07.049Z,102747.44
2023-02-06T14:18:15.410Z,102738.19
2023-02-06T14:21:02.751Z,102716.81
2023-02-06T14:23:36.257Z,102720.56
2023-02-06T14:26:26.507Z,102724.34
2023-02-06T14:29:13.707Z,102718.97
2023-02-06T14:32:13.527Z,102725.66
2023-02-06T14:35:13.991Z,102726.28
2023-02-06T14:37:51.949Z,102736.50
2023-02-06T14:40:27.784Z,102743.41
2023-02-06T14:43:04.333Z,102739.75
2023-02-06T14:45:42.202Z,102742.41
2023-02-06T14:48:43.579Z,102741.78
2023-02-06T14:51:34.188Z,102748.50
2023-02-06T14:54:07.511Z,102753.06
2023-02-06T14:56:38.333Z,102747.44
2023-02-06T14:59:18.673Z,102750.38
2023-02-06T15:01:50.225Z,102756.25
2023-02-06T15:04:29.977Z,102750.25
2023-02-06T15:07:00.641Z,102752.41
2023-02-06T15:09:38.987Z,102743.91
2023-02-06T15:12:21.671Z,102743.91
2023-02-06T15:15:13.906Z,102751.34
2023-02-06T15:17:41.585Z,102733.59
2023-02-06T15:20:25.237Z,102742.19
2023-02-06T15:23:02.153Z,102745.97
2023-02-06T15:26:00.985Z,102748.91
2023-02-06T15:28:31.987Z,102746.13
2023-02-06T15:31:01.791Z,102746.72
2023-02-06T15:33:33.167Z,102740.00
2023-02-06T15:36:04.452Z,102740.78
2023-02-06T15:38:34.434Z,102740.50
2023-02-06T15:41:07.324Z,102741.59
2023-02-06T15:43:36.247Z,102739.53
2023-02-06T15:46:06.072Z,102741.41
2023-02-06T15:48:57.503Z,102742.34
2023-02-06T15:51:29.441Z,102732.13
2023-02-06T15:54:24.617Z,102730.53
2023-02-06T15:57:08.363Z,102725.59
2023-02-06T15:59:40.186Z,102722.00
2023-02-06T16:02:23.025Z,102722.63
2023-02-06T16:04:54.369Z,102719.97
2023-02-06T16:07:25.583Z,102724.72
2023-02-06T16:09:59.448Z,102722.19
2023-02-06T16:12:32.188Z,102724.66
2023-02-06T16:15:02.259Z,102726.22
2023-02-06T16:17:41.234Z,102729.34
2023-02-06T16:20:34.040Z,102721.63
2023-02-06T16:23:23.893Z,102731.72
2023-02-06T16:26:13.864Z,102723.97
2023-02-06T16:29:03.363Z,102729.41
2023-02-06T16:31:35.751Z,102732.81
2023-02-06T16:34:29.516Z,102734.56
2023-02-06T16:36:57.385Z,102732.19
2023-02-06T16:39:25.390Z,102731.06
2023-02-06T16:41:54.210Z,102727.06
2023-02-06T16:44:22.706Z,102728.78
2023-02-06T16:46:52.237Z,102730.56
2023-02-06T16:49:22.696Z,102728.84
2023-02-06T16:51:53.604Z,102732.16
2023-02-06T16:54:28.814Z,102734.13
2023-02-06T16:57:01.622Z,102745.44
2023-02-06T16:59:29.877Z,102750.84
2023-02-06T17:01:58.294Z,102762.09
2023-02-06T17:04:25.967Z,102758.44
2023-02-06T17:06:53.982Z,102759.13
2023-02-06T17:09:21.619Z,102765.53
2023-02-06T17:11:49.154Z,102767.31
2023-02-06T17:14:18.865Z,102763.81
2023-02-06T17:16:46.665Z,102760.44
2023-02-06T17:19:15.584Z,102769.06
2023-02-06T17:21:44.181Z,102770.00
2023-02-06T17:24:11.699Z,102769.25
2023-02-06T17:26:39.686Z,102778.75
2023-02-06T17:29:08.619Z,102774.53
2023-02-06T17:31:36.222Z,102777.03
2023-02-06T17:34:04.333Z,102777.03
2023-02-06T17:36:33.857Z,102779.69
2023-02-06T17:39:02.206Z,102775.50
2023-02-06T17:41:31.380Z,102778.06
2023-02-06T17:43:59.416Z,102779.03
2023-02-06T17:46:27.513Z,102773.19
2023-02-06T17:48:55.946Z,102775.78
2023-02-06T17:51:24.536Z,102777.44
2023-02-06T17:53:52.679Z,102776.66
2023-02-06T17:56:21.053Z,102777.53
2023-02-06T17:58:49.749Z,102781.00
2023-02-06T18:01:22.862Z,102786.25
2023-02-06T18:03:52.140Z,102784.59
2023-02-06T18:06:20.692Z,102788.84
2023-02-06T18:08:49.102Z,102783.66
2023-02-06T18:11:19.816Z,102794.16
2023-02-06T18:13:50.112Z,102795.03
2023-02-06T18:16:21.331Z,102791.63
2023-02-06T18:18:50.357Z,102791.56
2023-02-06T18:21:20.053Z,102799.53
2023-02-06T18:23:49.092Z,102790.88
2023-02-06T18:26:17.728Z,102794.38
2023-02-06T18:28:45.682Z,102787.41
2023-02-06T18:31:31.005Z,102786.63
2023-02-06T18:33:59.972Z,102791.81
2023-02-06T18:36:28.124Z,102790.97
2023-02-06T18:38:57.600Z,102802.28
2023-02-06T18:41:43.944Z,102808.31
2023-02-06T18:44:12.760Z,102811.78
2023-02-06T18:46:40.733Z,102806.59
2023-02-06T18:49:09.497Z,102810.91
2023-02-06T18:51:37.076Z,102815.25
2023-02-06T18:54:05.403Z,102810.91
2023-02-06T18:56:34.408Z,102809.22
2023-02-06T18:59:04.006Z,102810.13
2023-02-06T19:01:33.282Z,102821.34
2023-02-06T19:04:01.559Z,102817.06
2023-02-06T19:06:35.591Z,102814.47
2023-02-06T19:09:07.151Z,102819.66
2023-02-06T19:11:36.649Z,102820.50
2023-02-06T19:14:05.771Z,102823.09
2023-02-06T19:16:35.527Z,102824.81
2023-02-06T19:19:03.628Z,102830.00
2023-02-06T19:21:31.972Z,102830.84
2023-02-06T19:24:00.804Z,102836.03
2023-02-06T19:26:29.016Z,102836.03
2023-02-06T19:28:57.847Z,102832.53
2023-02-06T19:31:26.582Z,102843.75
2023-02-06T19:33:59.079Z,102849.75
2023-02-06T19:36:28.736Z,102841.16
2023-02-06T19:38:58.992Z,102842.88
2023-02-06T19:41:29.734Z,102844.59
2023-02-06T19:44:02.302Z,102848.94
2023-02-06T19:46:30.561Z,102848.97
2023-02-06T19:48:58.592Z,102852.44
2023-02-06T19:51:33.857Z,102852.41
2023-02-06T19:54:02.487Z,102847.25
2023-02-06T19:56:34.696Z,102857.59
2023-02-06T19:59:09.923Z,102855.84
2023-02-06T20:01:38.055Z,102863.56
2023-02-06T20:04:06.129Z,102867.06
2023-02-06T20:06:35.279Z,102864.50
2023-02-06T20:09:05.507Z,102866.22
2023-02-06T20:11:33.617Z,102861.88
2023-02-06T20:14:01.889Z,102869.66
2023-02-06T20:16:34.580Z,102873.97
2023-02-06T20:19:07.572Z,102874.84
2023-02-06T20:21:39.338Z,102887.81
2023-02-06T20:24:15.032Z,102893.88
2023-02-06T20:26:43.304Z,102896.44
2023-02-06T20:29:24.373Z,102898.13
2023-02-06T20:31:53.902Z,102908.56
2023-02-06T20:34:22.315Z,102907.72
2023-02-06T20:36:51.402Z,102911.16
2023-02-06T20:39:19.633Z,102914.59
2023-02-06T20:41:49.612Z,102906.84
2023-02-06T20:44:18.781Z,102912.00
2023-02-06T20:46:47.019Z,102924.13
2023-02-06T20:49:18.709Z,102925.88
2023-02-06T20:51:46.847Z,102933.66
2023-02-06T20:54:15.568Z,102930.22
2023-02-06T20:56:43.945Z,102942.31
2023-02-06T20:59:14.990Z,102937.13
2023-02-06T21:01:43.579Z,102943.16
2023-02-06T21:04:14.560Z,102946.63
2023-02-06T21:06:43.238Z,102944.91
2023-02-06T21:09:12.120Z,102949.25
2023-02-06T21:11:44.226Z,102956.97
2023-02-06T21:14:13.898Z,102947.50
2023-02-06T21:16:43.828Z,102954.44
2023-02-06T21:19:14.273Z,102954.44
2023-02-06T21:21:44.997Z,102958.75
2023-02-06T21:24:15.417Z,102962.19
2023-02-06T21:26:43.795Z,102954.44
2023-02-06T21:29:13.948Z,102958.78
2023-02-06T21:31:42.250Z,102957.03
2023-02-06T21:34:21.260Z,102964.81
2023-02-06T21:36:49.717Z,102960.50
2023-02-06T21:39:21.250Z,102964.81
2023-02-06T21:41:53.879Z,102963.09
2023-02-06T21:44:26.585Z,102962.22
2023-02-06T21:46:56.205Z,102966.53
2023-02-06T21:49:24.615Z,102970.88
2023-02-06T21:51:53.223Z,102963.97
2023-02-06T21:54:20.946Z,102972.59
2023-02-06T21:56:49.137Z,102971.72
2023-02-06T21:59:17.086Z,102970.84
2023-02-06T22:01:45.391Z,102971.72
2023-02-06T22:04:13.313Z,102973.47
2023-02-06T22:06:41.990Z,102973.44
2023-02-06T22:09:15.263Z,102983.84
2023-02-06T22:11:43.834Z,102973.44
2023-02-06T22:14:14.815Z,102984.72
2023-02-06T22:16:42.791Z,102989.03
2023-02-06T22:19:11.022Z,102983.84
2023-02-06T22:21:39.086Z,102992.47
2023-02-06T22:24:09.248Z,102986.44
2023-02-06T22:26:38.947Z,102995.94
2023-02-06T22:29:10.007Z,102990.75
2023-02-06T22:31:40.405Z,102988.16
2023-02-06T22:34:11.887Z,102995.06
2023-02-06T22:36:39.935Z,102998.50
2023-02-06T22:39:10.398Z,103000.22
2023-02-06T22:41:42.789Z,103008.00
2023-02-06T22:44:16.253Z,103014.91
2023-02-06T22:46:46.720Z,103025.22
2023-02-06T22:49:14.737Z,103018.28
2023-02-06T22:51:43.455Z,103020.03
2023-02-06T22:54:12.622Z,103031.25
2023-02-06T22:56:43.055Z,103027.78
2023-02-06T22:59:12.219Z,103036.47
2023-02-06T23:01:45.184Z,103031.25
2023-02-06T23:04:17.642Z,103027.81
2023-02-06T23:06:47.076Z,103025.19
2023-02-06T23:09:27.536Z,103043.31
2023-02-06T23:11:58.481Z,103034.69
2023-02-06T23:14:28.516Z,103042.41
2023-02-06T23:16:56.872Z,103034.69
2023-02-06T23:19:25.184Z,103043.28
2023-02-06T23:21:52.806Z,103039.81
2023-02-06T23:24:21.100Z,103033.75
2023-02-06T23:26:51.446Z,103037.19
2023-02-06T23:29:20.962Z,103033.69
2023-02-06T23:31:49.556Z,103033.75
2023-02-06T23:34:18.896Z,103038.03
2023-02-06T23:36:46.742Z,103044.06
2023-02-06T23:39:14.361Z,103045.81
2023-02-06T23:41:42.437Z,103052.69
2023-02-06T23:44:10.751Z,103054.38
2023-02-06T23:46:40.145Z,103050.03
2023-02-06T23:49:09.229Z,103045.72
2023-02-06T23:51:38.187Z,103059.53
2023-02-06T23:54:07.618Z,103056.09
2023-02-06T23:56:36.561Z,103049.22
2023-02-06T23:59:06.421Z,103051.78
